Time;durP1;ratioP1;P1;durP2;ratioP2;P2;SDS_P1;SDS_P2;PMS_P1;PMS_P2;Temp;Humidity;BMP_temperature;BMP_pressure;BME280_temperature;BME280_humidity;BME280_pressure;Samples;Min_cycle;Max_cycle;Signal;HPM_P1;HPM_P2
2021/04/17 00:01:47;;;;;;;3.83;1.60;;;18.00;92.10;;;;;;5114122;28;20028;-68
2021/04/17 00:04:13;;;;;;;8.90;1.85;;;18.00;92.50;;;;;;5114204;28;20023;-64
2021/04/17 00:06:39;;;;;;;5.63;1.67;;;18.00;92.40;;;;;;5108635;28;20020;-67
2021/04/17 00:09:13;;;;;;;3.67;1.42;;;18.00;92.50;;;;;;5093732;28;20032;-64
2021/04/17 00:11:41;;;;;;;3.10;1.50;;;17.90;92.50;;;;;;5075628;28;20379;-67
2021/04/17 00:14:09;;;;;;;4.18;1.50;;;17.90;92.50;;;;;;5113167;28;20439;-67
2021/04/17 00:16:35;;;;;;;6.00;1.67;;;17.90;92.50;;;;;;5113594;28;20103;-68
2021/04/17 00:19:01;;;;;;;6.13;1.70;;;17.90;92.60;;;;;;5115586;28;20020;-70
2021/04/17 00:21:27;;;;;;;4.90;1.60;;;17.90;92.70;;;;;;5114464;28;20031;-67
2021/04/17 00:23:53;;;;;;;3.05;1.25;;;17.90;92.70;;;;;;5114190;28;20024;-66
2021/04/17 00:26:19;;;;;;;4.50;1.70;;;17.90;92.80;;;;;;5096910;28;20429;-67
2021/04/17 00:28:44;;;;;;;5.70;1.70;;;17.90;92.90;;;;;;5113549;28;20450;-67
2021/04/17 00:31:10;;;;;;;4.32;1.33;;;17.80;92.90;;;;;;5113801;28;20130;-64
2021/04/17 00:33:36;;;;;;;5.22;1.70;;;17.80;93.20;;;;;;5113955;28;20379;-69
2021/04/17 00:36:01;;;;;;;3.60;1.50;;;17.80;93.30;;;;;;5098111;28;20111;-71
2021/04/17 00:38:28;;;;;;;6.55;1.50;;;17.80;93.30;;;;;;5093104;28;20024;-66
2021/04/17 00:40:55;;;;;;;4.53;1.40;;;17.80;93.40;;;;;;5074808;28;20410;-65
2021/04/17 00:43:21;;;;;;;6.15;1.40;;;17.80;93.50;;;;;;5093048;28;20028;-68
2021/04/17 00:45:46;;;;;;;6.30;1.60;;;17.80;93.50;;;;;;5105096;28;20020;-69
2021/04/17 00:48:13;;;;;;;8.07;1.80;;;17.80;93.80;;;;;;5111519;28;20039;-67
2021/04/17 00:50:40;;;;;;;2.85;1.50;;;17.80;94.20;;;;;;5113358;28;20031;-67
2021/04/17 00:53:07;;;;;;;7.47;1.38;;;17.80;94.10;;;;;;5095128;28;20019;-68
2021/04/17 00:55:33;;;;;;;4.40;1.60;;;17.70;94.30;;;;;;5102362;28;20046;-67
2021/04/17 00:58:00;;;;;;;4.57;1.50;;;17.80;94.40;;;;;;5104341;28;20139;-70
2021/04/17 01:00:26;;;;;;;4.00;1.50;;;17.80;94.20;;;;;;5094910;28;20466;-67
2021/04/17 01:02:58;;;;;;;4.22;1.67;;;17.70;94.40;;;;;;5113019;28;20045;-68
2021/04/17 01:05:26;;;;;;;6.45;1.27;;;17.70;95.00;;;;;;5112214;28;20364;-65
2021/04/17 01:07:55;;;;;;;3.97;1.67;;;17.70;94.50;;;;;;5112721;28;20023;-69
2021/04/17 01:10:33;;;;;;;7.70;1.48;;;17.70;94.40;;;;;;5112828;28;20484;-66
2021/04/17 01:12:59;;;;;;;3.40;1.52;;;17.70;94.40;;;;;;5113085;28;20038;-65
2021/04/17 01:15:26;;;;;;;3.33;1.40;;;17.70;94.50;;;;;;5102772;28;20107;-66
2021/04/17 01:17:54;;;;;;;3.33;1.50;;;17.70;94.60;;;;;;5092344;28;20103;-68
2021/04/17 01:20:22;;;;;;;4.25;1.42;;;17.70;94.70;;;;;;5074079;28;20401;-68
2021/04/17 01:23:01;;;;;;;4.53;1.27;;;17.70;94.40;;;;;;5092238;28;20102;-69
2021/04/17 01:25:37;;;;;;;4.00;1.40;;;17.70;94.80;;;;;;5101688;28;20085;-67
2021/04/17 01:28:03;;;;;;;3.95;1.38;;;17.70;94.80;;;;;;5097481;28;20036;-68
2021/04/17 01:30:29;;;;;;;3.47;1.20;;;17.70;95.20;;;;;;5092215;28;20133;-66
2021/04/17 01:32:57;;;;;;;2.80;1.30;;;17.70;95.50;;;;;;5092091;28;20028;-68
2021/04/17 01:35:23;;;;;;;3.25;1.40;;;17.70;95.50;;;;;;5106767;28;20115;-67
2021/04/17 01:37:51;;;;;;;5.15;1.35;;;17.60;95.30;;;;;;5112626;28;20028;-67
2021/04/17 01:40:24;;;;;;;3.40;1.55;;;17.60;95.40;;;;;;5112464;28;20024;-68
2021/04/17 01:42:52;;;;;;;5.28;1.33;;;17.60;95.40;;;;;;5112483;28;20032;-69
2021/04/17 01:45:27;;;;;;;4.50;1.30;;;17.60;95.30;;;;;;5104039;28;20035;-67
2021/04/17 01:47:59;;;;;;;2.15;1.20;;;17.60;95.00;;;;;;5091889;28;20039;-69
2021/04/17 01:50:27;;;;;;;3.67;1.30;;;17.60;95.90;;;;;;5091935;28;20039;-66
2021/04/17 01:52:54;;;;;;;5.00;1.50;;;17.60;95.50;;;;;;5094133;28;20143;-68
2021/04/17 01:55:21;;;;;;;3.22;1.20;;;17.60;95.60;;;;;;5094329;28;20035;-67
2021/04/17 01:57:49;;;;;;;4.00;1.50;;;17.60;95.70;;;;;;5112191;28;20073;-66
2021/04/17 02:00:15;;;;;;;4.75;1.83;;;17.60;95.70;;;;;;5111767;28;20038;-66
2021/04/17 02:02:41;;;;;;;6.15;1.60;;;17.60;95.90;;;;;;5111091;28;20028;-67
2021/04/17 02:05:07;;;;;;;3.72;1.50;;;17.60;95.50;;;;;;5091957;28;20089;-71
2021/04/17 02:07:33;;;;;;;4.60;1.38;;;17.60;95.90;;;;;;5104714;28;20028;-71
2021/04/17 02:09:59;;;;;;;4.50;1.40;;;17.60;95.80;;;;;;5111969;28;20111;-63
2021/04/17 02:12:24;;;;;;;6.05;1.70;;;17.60;95.50;;;;;;5111230;28;20146;-70
2021/04/17 02:14:50;;;;;;;1.92;1.00;;;17.50;95.40;;;;;;5111736;28;20027;-67
2021/04/17 02:17:28;;;;;;;5.50;1.42;;;17.60;95.70;;;;;;5111939;28;20020;-70
2021/04/17 02:20:09;;;;;;;5.22;1.42;;;17.50;95.40;;;;;;5111792;28;20102;-69
2021/04/17 02:22:36;;;;;;;4.95;1.70;;;17.60;96.10;;;;;;5111242;28;20032;-70
2021/04/17 02:25:05;;;;;;;6.75;1.20;;;17.50;96.00;;;;;;5093670;28;20076;-69
2021/04/17 02:27:31;;;;;;;2.83;1.30;;;17.60;96.60;;;;;;5111371;28;20106;-68
2021/04/17 02:29:57;;;;;;;3.85;1.52;;;17.50;96.20;;;;;;5111994;28;20031;-68
2021/04/17 02:32:24;;;;;;;2.60;1.20;;;17.50;95.70;;;;;;5100434;28;20028;-68
2021/04/17 02:34:50;;;;;;;4.25;1.70;;;17.50;96.20;;;;;;5106290;28;20039;-68
2021/04/17 02:37:17;;;;;;;4.93;1.55;;;17.50;96.30;;;;;;5112718;28;20043;-65
2021/04/17 02:39:42;;;;;;;3.47;1.17;;;17.50;96.10;;;;;;5114099;28;20103;-69
2021/04/17 02:42:10;;;;;;;3.92;1.38;;;17.50;96.20;;;;;;5105048;28;20055;-65
2021/04/17 02:44:36;;;;;;;5.45;1.55;;;17.50;96.10;;;;;;5092686;28;20379;-65
2021/04/17 02:47:03;;;;;;;3.17;1.50;;;17.50;96.10;;;;;;5092365;28;20028;-67
2021/04/17 02:49:28;;;;;;;3.55;1.33;;;17.50;96.20;;;;;;5073624;28;20391;-69
2021/04/17 02:51:54;;;;;;;3.15;1.30;;;17.40;96.00;;;;;;5098029;28;20111;-70
2021/04/17 02:54:19;;;;;;;4.80;1.40;;;17.40;96.00;;;;;;5093385;28;20031;-65
2021/04/17 02:56:45;;;;;;;5.65;1.50;;;17.40;96.70;;;;;;5111721;28;20020;-67
2021/04/17 02:59:11;;;;;;;3.13;1.50;;;17.40;96.60;;;;;;5111956;28;20448;-63
2021/04/17 03:01:37;;;;;;;5.32;1.48;;;17.40;96.80;;;;;;5109987;28;20023;-64
2021/04/17 03:04:04;;;;;;;5.57;1.50;;;17.40;96.70;;;;;;5093300;28;20046;-66
2021/04/17 03:06:30;;;;;;;4.63;1.30;;;17.30;96.50;;;;;;5111421;28;20114;-65
2021/04/17 03:08:55;;;;;;;4.22;1.30;;;17.30;96.90;;;;;;5111469;28;20490;-70
2021/04/17 03:11:21;;;;;;;6.93;1.70;;;17.30;96.90;;;;;;5093132;28;20488;-69
2021/04/17 03:13:46;;;;;;;6.43;1.50;;;17.30;97.00;;;;;;5115323;28;20455;-66
2021/04/17 03:16:12;;;;;;;4.43;1.55;;;17.40;96.70;;;;;;5115344;28;20035;-64
2021/04/17 03:18:38;;;;;;;6.03;1.50;;;17.30;96.70;;;;;;5115133;28;20031;-65
2021/04/17 03:21:04;;;;;;;6.07;1.58;;;17.30;96.80;;;;;;5107623;28;20031;-67
2021/04/17 03:23:30;;;;;;;5.38;1.67;;;17.30;96.80;;;;;;5094747;28;20024;-69
2021/04/17 03:25:55;;;;;;;3.17;1.25;;;17.30;96.90;;;;;;5094815;28;20429;-62
2021/04/17 03:28:21;;;;;;;5.60;1.23;;;17.30;97.30;;;;;;5114768;28;20030;-65
2021/04/17 03:30:47;;;;;;;2.40;1.20;;;17.30;97.00;;;;;;5114244;28;20028;-71
2021/04/17 03:33:12;;;;;;;3.05;1.20;;;17.20;96.70;;;;;;5115065;28;20019;-67
2021/04/17 03:35:38;;;;;;;4.28;1.27;;;17.20;96.60;;;;;;5114770;28;20073;-66
2021/04/17 03:38:04;;;;;;;5.38;1.40;;;17.20;96.70;;;;;;5114607;28;20097;-68
2021/04/17 03:40:30;;;;;;;2.45;1.05;;;17.20;96.70;;;;;;5112531;28;20020;-67
2021/04/17 03:42:56;;;;;;;3.72;1.25;;;17.20;96.80;;;;;;5094307;28;20028;-65
2021/04/17 03:45:23;;;;;;;2.75;1.20;;;17.20;96.90;;;;;;5075977;28;20032;-67
2021/04/17 03:47:49;;;;;;;5.97;1.52;;;17.20;96.80;;;;;;5093938;28;20066;-71
2021/04/17 03:50:15;;;;;;;3.20;1.50;;;17.20;97.30;;;;;;5094775;28;20075;-65
2021/04/17 03:52:41;;;;;;;5.20;1.30;;;17.10;96.70;;;;;;5094274;28;20464;-67
2021/04/17 03:55:10;;;;;;;3.35;1.27;;;17.10;97.20;;;;;;5093923;28;20043;-67
2021/04/17 03:57:36;;;;;;;7.00;1.60;;;17.10;96.90;;;;;;5093920;28;20028;-65
2021/04/17 04:00:04;;;;;;;3.63;1.38;;;17.10;97.20;;;;;;5093930;28;20032;-67
2021/04/17 04:02:30;;;;;;;3.30;1.50;;;17.10;97.10;;;;;;5111684;28;20035;-68
2021/04/17 04:04:55;;;;;;;4.03;1.50;;;17.10;97.10;;;;;;5113683;28;20077;-69
2021/04/17 04:07:21;;;;;;;3.90;1.63;;;17.10;96.80;;;;;;5114022;28;20023;-71
2021/04/17 04:09:47;;;;;;;3.85;1.60;;;17.10;97.00;;;;;;5114295;28;20122;-67
2021/04/17 04:12:12;;;;;;;3.67;1.42;;;17.00;97.10;;;;;;5098678;28;20051;-69
2021/04/17 04:14:38;;;;;;;3.53;1.40;;;17.10;97.20;;;;;;5093738;28;20048;-72
2021/04/17 04:17:04;;;;;;;5.32;1.60;;;17.00;97.10;;;;;;5093622;28;20042;-68
2021/04/17 04:19:30;;;;;;;4.13;1.50;;;17.00;97.20;;;;;;5093415;28;20027;-68
2021/04/17 04:21:56;;;;;;;3.45;1.40;;;17.00;97.40;;;;;;5106096;28;20031;-69
2021/04/17 04:24:22;;;;;;;2.83;1.35;;;17.00;96.80;;;;;;5113651;28;20080;-66
2021/04/17 04:26:48;;;;;;;7.13;1.33;;;17.00;97.10;;;;;;5113779;28;20107;-70
2021/04/17 04:29:13;;;;;;;7.13;1.38;;;17.00;97.30;;;;;;5113911;28;20505;-70
2021/04/17 04:31:39;;;;;;;3.25;1.52;;;16.90;96.80;;;;;;5113060;28;20360;-69
2021/04/17 04:34:05;;;;;;;3.40;1.60;;;16.90;96.70;;;;;;5113249;28;20071;-67
2021/04/17 04:36:30;;;;;;;2.67;1.50;;;16.90;96.90;;;;;;5113611;28;20096;-67
2021/04/17 04:38:56;;;;;;;3.80;1.35;;;16.90;97.00;;;;;;5113522;28;20023;-67
2021/04/17 04:41:22;;;;;;;2.92;1.50;;;16.90;96.70;;;;;;5112741;28;20065;-67
2021/04/17 04:43:48;;;;;;;4.50;1.30;;;16.90;96.90;;;;;;5101740;28;20110;-66
2021/04/17 04:46:13;;;;;;;3.20;1.38;;;16.90;97.00;;;;;;5092891;28;20476;-71
2021/04/17 04:48:39;;;;;;;4.10;1.42;;;16.80;96.50;;;;;;5093015;28;20887;-68
2021/04/17 04:51:05;;;;;;;5.40;1.73;;;16.90;96.90;;;;;;5097255;28;20042;-70
2021/04/17 04:53:30;;;;;;;4.18;1.52;;;16.80;96.60;;;;;;5112944;28;20108;-68
2021/04/17 04:55:56;;;;;;;3.78;1.30;;;16.80;96.60;;;;;;5095493;28;20023;-68
2021/04/17 04:58:21;;;;;;;4.07;1.73;;;16.80;96.60;;;;;;5114398;28;20107;-68
2021/04/17 05:00:47;;;;;;;3.55;1.20;;;16.90;96.90;;;;;;5113950;28;20016;-67
2021/04/17 05:03:13;;;;;;;4.53;1.25;;;16.80;96.70;;;;;;5113428;28;20384;-70
2021/04/17 05:05:38;;;;;;;7.55;1.48;;;16.80;96.80;;;;;;5113312;28;20047;-71
2021/04/17 05:08:04;;;;;;;13.23;1.60;;;16.80;96.50;;;;;;5113005;28;20102;-65
2021/04/17 05:10:30;;;;;;;3.85;1.23;;;16.80;97.00;;;;;;5112277;28;20184;-70
2021/04/17 05:12:55;;;;;;;5.28;1.30;;;16.80;97.10;;;;;;5113024;28;20527;-67
2021/04/17 05:15:21;;;;;;;4.53;1.50;;;16.80;96.70;;;;;;5094661;28;20027;-65
2021/04/17 05:17:47;;;;;;;4.13;1.20;;;16.80;96.80;;;;;;5113310;28;20039;-68
2021/04/17 05:20:13;;;;;;;3.58;1.40;;;16.80;96.70;;;;;;5109716;28;20102;-66
2021/04/17 05:22:38;;;;;;;3.05;1.33;;;16.80;96.70;;;;;;5092286;28;20380;-67
2021/04/17 05:25:05;;;;;;;5.80;1.45;;;16.80;96.60;;;;;;5080099;28;20047;-72
2021/04/17 05:27:30;;;;;;;4.78;1.70;;;16.70;96.70;;;;;;5112778;28;20020;-70
2021/04/17 05:29:56;;;;;;;2.53;1.35;;;16.80;96.20;;;;;;5112015;28;20102;-70
2021/04/17 05:32:22;;;;;;;6.72;1.60;;;16.70;96.50;;;;;;5110136;28;20030;-65
2021/04/17 05:34:47;;;;;;;3.85;1.38;;;16.70;96.20;;;;;;5112189;28;20031;-68
2021/04/17 05:37:13;;;;;;;3.08;1.08;;;16.70;96.50;;;;;;5112671;28;20102;-70
2021/04/17 05:39:39;;;;;;;3.53;1.27;;;16.70;96.20;;;;;;5112635;28;20046;-68
2021/04/17 05:42:05;;;;;;;4.53;1.48;;;16.70;96.10;;;;;;5094093;28;20035;-70
2021/04/17 05:44:30;;;;;;;3.95;1.33;;;16.70;96.20;;;;;;5092054;28;20035;-72
2021/04/17 05:46:56;;;;;;;3.33;1.40;;;16.80;96.30;;;;;;5091978;28;20032;-70
2021/04/17 05:49:22;;;;;;;4.40;1.30;;;16.70;95.80;;;;;;5100576;28;20391;-70
2021/04/17 05:51:48;;;;;;;2.63;1.30;;;16.70;96.50;;;;;;5099553;28;20028;-71
2021/04/17 05:54:14;;;;;;;3.92;1.40;;;16.70;96.60;;;;;;5091959;28;20105;-69
2021/04/17 05:56:40;;;;;;;3.67;1.33;;;16.70;96.40;;;;;;5092113;28;20453;-72
2021/04/17 05:59:06;;;;;;;3.88;1.27;;;16.70;96.30;;;;;;5091847;28;20020;-68
2021/04/17 06:01:32;;;;;;;3.25;1.10;;;16.70;96.20;;;;;;5108692;28;20024;-66
2021/04/17 06:03:58;;;;;;;3.85;1.30;;;16.70;96.90;;;;;;5112387;28;20024;-68
2021/04/17 06:06:24;;;;;;;5.40;1.10;;;16.70;96.50;;;;;;5112109;28;20360;-61
2021/04/17 06:08:50;;;;;;;3.83;1.50;;;16.70;96.30;;;;;;5111845;28;20062;-68
2021/04/17 06:11:15;;;;;;;4.00;1.70;;;16.60;91.60;;;;;;5112184;28;20084;-68
2021/04/17 06:13:43;;;;;;;3.13;1.80;;;16.50;88.70;;;;;;5112228;28;20028;-67
2021/04/17 06:16:09;;;;;;;5.45;1.88;;;16.40;89.80;;;;;;5112006;28;20198;-70
2021/04/17 06:18:36;;;;;;;9.77;2.30;;;16.30;88.90;;;;;;5111253;28;20062;-69
2021/04/17 06:21:03;;;;;;;8.13;1.67;;;16.30;90.70;;;;;;5112458;28;20412;-72
2021/04/17 06:23:29;;;;;;;6.03;1.45;;;16.30;90.70;;;;;;5111927;28;20031;-72
2021/04/17 06:25:54;;;;;;;5.60;1.60;;;16.40;90.40;;;;;;5112128;28;20020;-67
2021/04/17 06:28:20;;;;;;;2.67;1.30;;;16.50;90.30;;;;;;5112336;28;20080;-71
2021/04/17 06:30:46;;;;;;;3.10;1.52;;;16.60;90.30;;;;;;5110751;28;20510;-69
2021/04/17 06:33:12;;;;;;;6.70;1.27;;;16.70;90.30;;;;;;5106946;28;20020;-70
2021/04/17 06:35:38;;;;;;;4.70;1.50;;;16.80;90.50;;;;;;5105793;28;20177;-72
2021/04/17 06:38:07;;;;;;;3.78;1.33;;;16.80;90.30;;;;;;5107219;28;20491;-70
2021/04/17 06:40:33;;;;;;;3.42;1.30;;;16.90;90.00;;;;;;5111479;28;20049;-71
2021/04/17 06:43:03;;;;;;;5.82;1.40;;;16.90;89.00;;;;;;5111371;28;20099;-69
2021/04/17 06:45:30;;;;;;;7.47;1.60;;;17.10;89.50;;;;;;5091760;28;20066;-70
2021/04/17 06:47:57;;;;;;;5.05;1.83;;;17.20;90.00;;;;;;5112532;28;20060;-71
2021/04/17 06:50:23;;;;;;;8.73;1.42;;;17.20;90.30;;;;;;5114786;28;20102;-71
2021/04/17 06:52:52;;;;;;;5.22;1.35;;;17.20;90.70;;;;;;5114981;28;20026;-69
2021/04/17 06:55:18;;;;;;;8.88;1.60;;;17.20;90.50;;;;;;5115191;28;20069;-69
2021/04/17 06:57:44;;;;;;;4.40;1.15;;;17.20;90.40;;;;;;5110845;28;20066;-71
2021/04/17 07:00:12;;;;;;;4.25;1.35;;;17.20;89.60;;;;;;5115467;28;20487;-68
2021/04/17 07:02:39;;;;;;;2.95;1.05;;;17.20;88.30;;;;;;5096834;28;20031;-69
2021/04/17 07:05:05;;;;;;;6.15;1.65;;;17.20;87.50;;;;;;5115702;28;20036;-69
2021/04/17 07:07:32;;;;;;;5.35;1.20;;;17.20;86.80;;;;;;5114776;28;20094;-68
2021/04/17 07:09:58;;;;;;;14.05;2.22;;;17.30;88.60;;;;;;5115343;28;20107;-68
2021/04/17 07:12:24;;;;;;;10.68;3.05;;;17.10;89.40;;;;;;5115553;28;20048;-68
2021/04/17 07:14:52;;;;;;;10.32;3.03;;;16.80;88.40;;;;;;5115339;28;20023;-67
2021/04/17 07:17:19;;;;;;;9.57;3.97;;;16.60;86.50;;;;;;5115259;28;20030;-67
2021/04/17 07:19:46;;;;;;;6.85;3.42;;;16.50;88.00;;;;;;5114157;28;20085;-67
2021/04/17 07:22:15;;;;;;;6.85;3.65;;;16.40;87.90;;;;;;5116454;28;20380;-68
2021/04/17 07:24:40;;;;;;;6.88;3.75;;;16.30;87.30;;;;;;5115885;28;20023;-68
2021/04/17 07:27:06;;;;;;;5.30;3.28;;;16.30;87.30;;;;;;5115540;28;20028;-67
2021/04/17 07:29:43;;;;;;;6.65;3.22;;;16.20;86.70;;;;;;5114109;28;20047;-68
2021/04/17 07:32:18;;;;;;;7.57;3.92;;;16.10;86.80;;;;;;5114952;28;20016;-66
2021/04/17 07:35:09;;;;;;;5.63;3.17;;;16.00;86.80;;;;;;5115125;28;20112;-68
2021/04/17 07:37:36;;;;;;;11.63;4.45;;;16.00;87.00;;;;;;5114995;28;20034;-67
2021/04/17 07:40:25;;;;;;;6.80;3.80;;;16.00;86.80;;;;;;5113882;28;20395;-68
2021/04/17 07:42:54;;;;;;;6.82;3.53;;;16.10;86.10;;;;;;5130588;27;20043;-66
2021/04/17 07:45:30;;;;;;;6.85;3.50;;;16.00;86.00;;;;;;5114517;28;20123;-68
2021/04/17 07:48:17;;;;;;;8.70;3.75;;;16.00;85.50;;;;;;5113996;28;20031;-67
2021/04/17 07:50:43;;;;;;;9.07;3.47;;;15.90;86.00;;;;;;5114426;28;20027;-67
2021/04/17 07:53:33;;;;;;;7.30;3.45;;;16.00;86.00;;;;;;5114542;28;20023;-67
2021/04/17 07:56:24;;;;;;;6.47;2.53;;;16.00;86.90;;;;;;5114525;28;20056;-67
2021/04/17 07:58:53;;;;;;;5.40;2.45;;;16.60;86.20;;;;;;5113055;28;20106;-69
2021/04/17 08:01:20;;;;;;;3.30;1.85;;;17.00;85.10;;;;;;5085699;28;20027;-75
2021/04/17 08:03:46;;;;;;;5.47;1.90;;;17.40;86.80;;;;;;5110293;27;20454;-74
2021/04/17 08:06:14;;;;;;;5.32;1.75;;;17.60;84.80;;;;;;5113527;28;20399;-72
2021/04/17 08:08:41;;;;;;;3.33;1.70;;;17.80;84.50;;;;;;5112456;28;20036;-72
2021/04/17 08:11:10;;;;;;;3.17;1.63;;;17.90;84.80;;;;;;5113509;28;20027;-69
2021/04/17 08:13:42;;;;;;;3.70;1.40;;;18.00;85.10;;;;;;5113901;28;20087;-69
2021/04/17 08:16:09;;;;;;;3.65;1.63;;;18.00;85.30;;;;;;5112781;28;20455;-68
2021/04/17 08:18:36;;;;;;;3.92;1.90;;;18.00;85.30;;;;;;5111483;28;20027;-68
2021/04/17 08:21:03;;;;;;;4.47;1.88;;;18.00;85.10;;;;;;5113167;28;20020;-68
2021/04/17 08:23:30;;;;;;;4.85;1.45;;;17.90;84.70;;;;;;5114352;28;20019;-68
2021/04/17 08:25:57;;;;;;;7.43;1.85;;;17.90;84.70;;;;;;5113377;28;20020;-68
2021/04/17 08:28:26;;;;;;;2.83;1.30;;;17.90;84.70;;;;;;5112983;28;20039;-70
2021/04/17 08:31:27;;;;;;;2.58;1.20;;;17.90;84.70;;;;;;5097233;28;20364;-70
2021/04/17 08:34:18;;;;;;;3.67;1.25;;;17.90;84.50;;;;;;5111826;27;20435;-69
2021/04/17 08:36:49;;;;;;;4.30;1.48;;;17.90;84.50;;;;;;5110314;28;20032;-69
2021/04/17 08:39:33;;;;;;;4.00;1.33;;;17.90;84.50;;;;;;5102410;28;20157;-69
2021/04/17 08:42:00;;;;;;;3.47;1.23;;;17.90;84.60;;;;;;5113939;28;20099;-70
2021/04/17 08:44:32;;;;;;;2.58;1.25;;;17.90;84.70;;;;;;5112773;28;20032;-69
2021/04/17 08:46:59;;;;;;;5.50;1.67;;;17.90;84.70;;;;;;5112982;28;20084;-69
2021/04/17 08:49:27;;;;;;;2.30;1.23;;;17.90;84.70;;;;;;5113290;28;20047;-69
2021/04/17 08:52:19;;;;;;;3.85;1.42;;;17.90;84.90;;;;;;5112667;28;20479;-69
2021/04/17 08:54:45;;;;;;;3.33;1.20;;;17.90;85.00;;;;;;5113030;28;20039;-69
2021/04/17 08:57:16;;;;;;;6.22;1.30;;;17.90;85.00;;;;;;5111806;28;20060;-69
2021/04/17 08:59:43;;;;;;;2.75;1.10;;;17.90;85.00;;;;;;5113144;28;20019;-69
2021/04/17 09:02:15;;;;;;;8.05;1.10;;;17.90;85.10;;;;;;5113222;28;20016;-69
2021/04/17 09:05:17;;;;;;;3.20;1.05;;;17.90;85.30;;;;;;5113064;28;20118;-69
2021/04/17 09:07:46;;;;;;;2.75;1.05;;;17.90;85.70;;;;;;5069830;28;20383;-70
2021/04/17 09:10:23;;;;;;;3.42;1.33;;;17.90;85.80;;;;;;5109999;28;20091;-69
2021/04/17 09:13:18;;;;;;;6.63;1.40;;;17.90;86.10;;;;;;5092338;28;20408;-69
2021/04/17 09:15:58;;;;;;;2.03;1.20;;;17.90;86.20;;;;;;5063002;28;20119;-69
2021/04/17 09:18:32;;;;;;;3.70;1.30;;;18.00;86.60;;;;;;5092291;28;20480;-67
2021/04/17 09:20:59;;;;;;;2.63;1.02;;;18.00;87.00;;;;;;5092855;28;20103;-74
2021/04/17 09:23:41;;;;;;;3.88;1.50;;;18.00;87.00;;;;;;5100656;28;20047;-68
2021/04/17 09:26:07;;;;;;;3.50;1.33;;;18.00;87.50;;;;;;5101306;28;20487;-66
2021/04/17 09:28:37;;;;;;;3.55;1.20;;;18.00;87.60;;;;;;5112691;28;20380;-65
2021/04/17 09:31:05;;;;;;;3.55;1.02;;;18.00;87.60;;;;;;5112648;28;20015;-68
2021/04/17 09:33:31;;;;;;;2.03;1.13;;;18.10;87.60;;;;;;5112799;28;20034;-66
2021/04/17 09:35:56;;;;;;;5.82;1.33;;;18.10;88.20;;;;;;5112186;28;20106;-67
2021/04/17 09:38:28;;;;;;;4.47;1.10;;;18.20;89.90;;;;;;5112646;28;20055;-60
